sensor_id;sensor_type;location;lat;lon;timestamp;temperature;humidity
18147;DHT22;9199;48.832;9.182;2022-07-29T00:00:49;19.80;99.90
18147;DHT22;9199;48.832;9.182;2022-07-29T00:03:15;19.80;99.90
18147;DHT22;9199;48.832;9.182;2022-07-29T00:05:42;19.80;99.90
18147;DHT22;9199;48.832;9.182;2022-07-29T00:08:09;19.80;99.90
18147;DHT22;9199;48.832;9.182;2022-07-29T00:10:36;19.70;99.90
18147;DHT22;9199;48.832;9.182;2022-07-29T00:13:04;19.70;99.90
18147;DHT22;9199;48.832;9.182;2022-07-29T00:15:30;19.70;99.90
18147;DHT22;9199;48.832;9.182;2022-07-29T00:17:57;19.70;99.90
18147;DHT22;9199;48.832;9.182;2022-07-29T00:20:24;19.70;99.90
18147;DHT22;9199;48.832;9.182;2022-07-29T00:22:50;19.60;99.90
18147;DHT22;9199;48.832;9.182;2022-07-29T00:25:18;19.50;99.90
18147;DHT22;9199;48.832;9.182;2022-07-29T00:27:45;19.40;99.90
18147;DHT22;9199;48.832;9.182;2022-07-29T00:30:14;19.40;99.90
18147;DHT22;9199;48.832;9.182;2022-07-29T00:32:41;19.40;99.90
18147;DHT22;9199;48.832;9.182;2022-07-29T00:35:08;19.40;99.90
18147;DHT22;9199;48.832;9.182;2022-07-29T00:37:52;19.40;99.90
18147;DHT22;9199;48.832;9.182;2022-07-29T00:40:20;19.40;99.90
18147;DHT22;9199;48.832;9.182;2022-07-29T00:42:49;19.30;99.90
18147;DHT22;9199;48.832;9.182;2022-07-29T00:45:18;19.20;99.90
18147;DHT22;9199;48.832;9.182;2022-07-29T00:47:45;19.10;99.90
18147;DHT22;9199;48.832;9.182;2022-07-29T00:50:13;19.10;99.90
18147;DHT22;9199;48.832;9.182;2022-07-29T00:52:40;19.20;99.90
18147;DHT22;9199;48.832;9.182;2022-07-29T00:55:11;19.30;99.90
18147;DHT22;9199;48.832;9.182;2022-07-29T00:57:39;19.50;99.90
18147;DHT22;9199;48.832;9.182;2022-07-29T01:00:09;19.70;99.90
18147;DHT22;9199;48.832;9.182;2022-07-29T01:02:37;19.80;99.90
18147;DHT22;9199;48.832;9.182;2022-07-29T01:05:05;19.80;99.90
18147;DHT22;9199;48.832;9.182;2022-07-29T01:07:33;19.80;99.90
18147;DHT22;9199;48.832;9.182;2022-07-29T01:10:02;19.80;99.90
18147;DHT22;9199;48.832;9.182;2022-07-29T01:12:30;19.80;99.90
18147;DHT22;9199;48.832;9.182;2022-07-29T01:14:58;19.90;99.90
18147;DHT22;9199;48.832;9.182;2022-07-29T01:17:28;19.80;99.90
18147;DHT22;9199;48.832;9.182;2022-07-29T01:20:03;19.80;99.90
18147;DHT22;9199;48.832;9.182;2022-07-29T01:31:18;19.80;99.90
18147;DHT22;9199;48.832;9.182;2022-07-29T01:33:52;19.70;99.90
18147;DHT22;9199;48.832;9.182;2022-07-29T01:36:24;19.70;99.90
18147;DHT22;9199;48.832;9.182;2022-07-29T01:38:58;19.70;99.90
18147;DHT22;9199;48.832;9.182;2022-07-29T01:41:31;19.60;99.90
18147;DHT22;9199;48.832;9.182;2022-07-29T01:44:04;19.60;99.90
18147;DHT22;9199;48.832;9.182;2022-07-29T01:46:38;19.60;99.90
18147;DHT22;9199;48.832;9.182;2022-07-29T01:49:08;19.60;99.90
18147;DHT22;9199;48.832;9.182;2022-07-29T01:51:41;19.60;99.90
18147;DHT22;9199;48.832;9.182;2022-07-29T01:54:13;19.70;99.90
18147;DHT22;9199;48.832;9.182;2022-07-29T01:56:42;19.70;99.90
18147;DHT22;9199;48.832;9.182;2022-07-29T01:59:11;19.70;99.90
18147;DHT22;9199;48.832;9.182;2022-07-29T02:01:40;19.70;99.90
18147;DHT22;9199;48.832;9.182;2022-07-29T02:04:10;19.80;99.90
18147;DHT22;9199;48.832;9.182;2022-07-29T02:06:38;19.70;99.90
18147;DHT22;9199;48.832;9.182;2022-07-29T02:09:07;19.60;99.90
18147;DHT22;9199;48.832;9.182;2022-07-29T02:11:36;19.60;99.90
18147;DHT22;9199;48.832;9.182;2022-07-29T02:14:05;19.60;99.90
18147;DHT22;9199;48.832;9.182;2022-07-29T02:16:36;19.60;99.90
18147;DHT22;9199;48.832;9.182;2022-07-29T02:19:04;19.50;99.90
18147;DHT22;9199;48.832;9.182;2022-07-29T02:21:32;19.50;99.90
18147;DHT22;9199;48.832;9.182;2022-07-29T02:24:01;19.50;99.90
18147;DHT22;9199;48.832;9.182;2022-07-29T02:26:29;19.50;99.90
18147;DHT22;9199;48.832;9.182;2022-07-29T02:28:58;19.50;99.90
18147;DHT22;9199;48.832;9.182;2022-07-29T02:31:29;19.40;99.90
18147;DHT22;9199;48.832;9.182;2022-07-29T02:33:59;19.40;99.90
18147;DHT22;9199;48.832;9.182;2022-07-29T02:36:27;19.30;99.90
18147;DHT22;9199;48.832;9.182;2022-07-29T02:38:55;19.30;99.90
18147;DHT22;9199;48.832;9.182;2022-07-29T02:41:27;19.30;99.90
18147;DHT22;9199;48.832;9.182;2022-07-29T02:43:56;19.30;99.90
18147;DHT22;9199;48.832;9.182;2022-07-29T02:46:29;19.20;99.90
18147;DHT22;9199;48.832;9.182;2022-07-29T02:49:02;19.10;99.90
18147;DHT22;9199;48.832;9.182;2022-07-29T02:51:36;19.10;99.90
18147;DHT22;9199;48.832;9.182;2022-07-29T02:54:07;19.00;99.90
18147;DHT22;9199;48.832;9.182;2022-07-29T02:56:36;18.90;99.90
18147;DHT22;9199;48.832;9.182;2022-07-29T02:59:09;18.80;99.90
18147;DHT22;9199;48.832;9.182;2022-07-29T03:01:40;18.70;99.90
18147;DHT22;9199;48.832;9.182;2022-07-29T03:04:09;18.60;99.90
18147;DHT22;9199;48.832;9.182;2022-07-29T03:06:38;18.50;99.90
18147;DHT22;9199;48.832;9.182;2022-07-29T03:09:06;18.50;99.90
18147;DHT22;9199;48.832;9.182;2022-07-29T03:11:34;18.50;99.90
18147;DHT22;9199;48.832;9.182;2022-07-29T03:14:02;18.40;99.90
18147;DHT22;9199;48.832;9.182;2022-07-29T03:16:30;18.30;99.90
18147;DHT22;9199;48.832;9.182;2022-07-29T03:18:57;18.30;99.90
18147;DHT22;9199;48.832;9.182;2022-07-29T03:21:26;18.30;99.90
18147;DHT22;9199;48.832;9.182;2022-07-29T03:23:52;18.30;99.90
18147;DHT22;9199;48.832;9.182;2022-07-29T03:26:19;18.40;99.90
18147;DHT22;9199;48.832;9.182;2022-07-29T03:28:46;18.30;99.90
18147;DHT22;9199;48.832;9.182;2022-07-29T03:31:13;18.30;99.90
18147;DHT22;9199;48.832;9.182;2022-07-29T03:33:39;18.30;99.90
18147;DHT22;9199;48.832;9.182;2022-07-29T03:36:06;18.30;99.90
18147;DHT22;9199;48.832;9.182;2022-07-29T03:38:35;18.20;99.90
18147;DHT22;9199;48.832;9.182;2022-07-29T03:41:07;18.20;99.90
18147;DHT22;9199;48.832;9.182;2022-07-29T03:43:37;18.10;99.90
18147;DHT22;9199;48.832;9.182;2022-07-29T03:46:06;18.10;99.90
18147;DHT22;9199;48.832;9.182;2022-07-29T03:48:35;18.10;99.90
18147;DHT22;9199;48.832;9.182;2022-07-29T03:51:03;18.10;99.90
18147;DHT22;9199;48.832;9.182;2022-07-29T03:53:30;18.10;99.90
18147;DHT22;9199;48.832;9.182;2022-07-29T03:55:59;18.00;99.90
18147;DHT22;9199;48.832;9.182;2022-07-29T03:58:28;18.00;99.90
18147;DHT22;9199;48.832;9.182;2022-07-29T04:00:56;18.00;99.90
18147;DHT22;9199;48.832;9.182;2022-07-29T04:03:23;17.90;99.90
18147;DHT22;9199;48.832;9.182;2022-07-29T04:06:01;18.00;99.90
18147;DHT22;9199;48.832;9.182;2022-07-29T04:08:28;18.00;99.90
18147;DHT22;9199;48.832;9.182;2022-07-29T04:10:55;18.00;99.90
18147;DHT22;9199;48.832;9.182;2022-07-29T04:13:23;18.10;99.90
18147;DHT22;9199;48.832;9.182;2022-07-29T04:15:50;18.30;99.90
18147;DHT22;9199;48.832;9.182;2022-07-29T04:18:16;18.40;99.90
18147;DHT22;9199;48.832;9.182;2022-07-29T04:20:43;18.60;99.90
18147;DHT22;9199;48.832;9.182;2022-07-29T04:23:10;18.70;99.90
18147;DHT22;9199;48.832;9.182;2022-07-29T04:25:37;18.60;99.90
18147;DHT22;9199;48.832;9.182;2022-07-29T04:28:05;18.60;99.90
18147;DHT22;9199;48.832;9.182;2022-07-29T04:30:34;18.60;99.90
18147;DHT22;9199;48.832;9.182;2022-07-29T04:33:03;18.60;99.90
18147;DHT22;9199;48.832;9.182;2022-07-29T04:35:33;18.60;99.90
18147;DHT22;9199;48.832;9.182;2022-07-29T04:38:00;18.60;99.90
18147;DHT22;9199;48.832;9.182;2022-07-29T04:40:27;18.60;99.90
18147;DHT22;9199;48.832;9.182;2022-07-29T04:42:54;18.70;99.90
18147;DHT22;9199;48.832;9.182;2022-07-29T04:45:21;18.80;99.90
18147;DHT22;9199;48.832;9.182;2022-07-29T04:47:49;18.90;99.90
18147;DHT22;9199;48.832;9.182;2022-07-29T04:50:16;19.10;99.90
18147;DHT22;9199;48.832;9.182;2022-07-29T04:52:43;19.20;99.90
18147;DHT22;9199;48.832;9.182;2022-07-29T04:55:09;19.30;99.90
18147;DHT22;9199;48.832;9.182;2022-07-29T04:57:36;19.30;99.90
18147;DHT22;9199;48.832;9.182;2022-07-29T05:00:04;19.30;99.90
18147;DHT22;9199;48.832;9.182;2022-07-29T05:02:31;19.40;99.90
18147;DHT22;9199;48.832;9.182;2022-07-29T05:04:59;19.40;99.90
18147;DHT22;9199;48.832;9.182;2022-07-29T05:07:26;19.50;99.90
18147;DHT22;9199;48.832;9.182;2022-07-29T05:09:53;19.60;99.90
18147;DHT22;9199;48.832;9.182;2022-07-29T05:12:22;19.70;99.90
18147;DHT22;9199;48.832;9.182;2022-07-29T05:14:48;19.80;99.90
18147;DHT22;9199;48.832;9.182;2022-07-29T05:17:15;19.80;99.90
18147;DHT22;9199;48.832;9.182;2022-07-29T05:19:42;19.90;99.90
18147;DHT22;9199;48.832;9.182;2022-07-29T05:22:10;20.00;99.90
18147;DHT22;9199;48.832;9.182;2022-07-29T05:24:37;20.10;99.90
18147;DHT22;9199;48.832;9.182;2022-07-29T05:27:04;20.20;99.90
18147;DHT22;9199;48.832;9.182;2022-07-29T05:29:30;20.40;99.90
18147;DHT22;9199;48.832;9.182;2022-07-29T05:31:57;20.50;99.90
18147;DHT22;9199;48.832;9.182;2022-07-29T05:34:24;20.70;99.90
18147;DHT22;9199;48.832;9.182;2022-07-29T05:36:51;20.90;99.90
18147;DHT22;9199;48.832;9.182;2022-07-29T05:39:19;21.10;99.90
18147;DHT22;9199;48.832;9.182;2022-07-29T05:41:46;21.20;99.90
18147;DHT22;9199;48.832;9.182;2022-07-29T05:44:13;21.30;99.90
18147;DHT22;9199;48.832;9.182;2022-07-29T05:46:40;21.50;99.90
18147;DHT22;9199;48.832;9.182;2022-07-29T05:49:06;21.60;99.90
18147;DHT22;9199;48.832;9.182;2022-07-29T05:51:33;21.90;99.90
18147;DHT22;9199;48.832;9.182;2022-07-29T05:54:00;22.00;99.90
18147;DHT22;9199;48.832;9.182;2022-07-29T05:56:28;22.10;99.90
18147;DHT22;9199;48.832;9.182;2022-07-29T05:58:55;22.30;99.90
18147;DHT22;9199;48.832;9.182;2022-07-29T06:01:22;22.40;99.90
18147;DHT22;9199;48.832;9.182;2022-07-29T06:03:49;22.50;99.90
18147;DHT22;9199;48.832;9.182;2022-07-29T06:06:16;22.50;99.90
18147;DHT22;9199;48.832;9.182;2022-07-29T06:08:42;22.60;99.90
18147;DHT22;9199;48.832;9.182;2022-07-29T06:11:09;22.70;99.90
18147;DHT22;9199;48.832;9.182;2022-07-29T06:13:37;22.90;99.90
18147;DHT22;9199;48.832;9.182;2022-07-29T06:16:04;23.20;99.90
18147;DHT22;9199;48.832;9.182;2022-07-29T06:18:31;23.40;99.90
18147;DHT22;9199;48.832;9.182;2022-07-29T06:26:55;24.10;99.90
18147;DHT22;9199;48.832;9.182;2022-07-29T06:29:23;24.40;99.90
18147;DHT22;9199;48.832;9.182;2022-07-29T06:31:50;24.70;99.90
18147;DHT22;9199;48.832;9.182;2022-07-29T06:34:17;25.00;99.90
18147;DHT22;9199;48.832;9.182;2022-07-29T06:36:44;25.20;99.90
18147;DHT22;9199;48.832;9.182;2022-07-29T06:39:10;25.30;99.90
18147;DHT22;9199;48.832;9.182;2022-07-29T06:41:37;25.30;99.90
18147;DHT22;9199;48.832;9.182;2022-07-29T06:44:04;25.30;99.90
18147;DHT22;9199;48.832;9.182;2022-07-29T06:46:32;25.30;99.90
18147;DHT22;9199;48.832;9.182;2022-07-29T06:48:59;25.30;99.90
18147;DHT22;9199;48.832;9.182;2022-07-29T06:51:27;25.20;99.90
18147;DHT22;9199;48.832;9.182;2022-07-29T06:53:53;25.20;99.90
18147;DHT22;9199;48.832;9.182;2022-07-29T06:56:20;25.20;99.90
18147;DHT22;9199;48.832;9.182;2022-07-29T06:58:47;25.40;99.90
18147;DHT22;9199;48.832;9.182;2022-07-29T07:01:14;25.40;99.90
18147;DHT22;9199;48.832;9.182;2022-07-29T07:03:42;25.60;99.90
18147;DHT22;9199;48.832;9.182;2022-07-29T07:06:08;25.70;99.90
18147;DHT22;9199;48.832;9.182;2022-07-29T07:08:35;25.90;99.90
18147;DHT22;9199;48.832;9.182;2022-07-29T07:11:02;26.20;99.90
18147;DHT22;9199;48.832;9.182;2022-07-29T07:13:29;26.60;99.90
18147;DHT22;9199;48.832;9.182;2022-07-29T07:16:00;26.90;99.90
18147;DHT22;9199;48.832;9.182;2022-07-29T07:18:26;27.30;99.90
18147;DHT22;9199;48.832;9.182;2022-07-29T07:20:56;27.50;99.90
18147;DHT22;9199;48.832;9.182;2022-07-29T07:23:23;27.40;99.90
18147;DHT22;9199;48.832;9.182;2022-07-29T07:25:50;27.30;99.90
18147;DHT22;9199;48.832;9.182;2022-07-29T07:28:17;27.40;99.00
18147;DHT22;9199;48.832;9.182;2022-07-29T07:30:45;27.60;98.50
18147;DHT22;9199;48.832;9.182;2022-07-29T07:33:12;27.80;98.70
18147;DHT22;9199;48.832;9.182;2022-07-29T07:35:39;27.90;98.50
18147;DHT22;9199;48.832;9.182;2022-07-29T07:38:07;28.00;98.00
18147;DHT22;9199;48.832;9.182;2022-07-29T07:40:33;28.00;97.30
18147;DHT22;9199;48.832;9.182;2022-07-29T07:43:00;27.90;97.80
18147;DHT22;9199;48.832;9.182;2022-07-29T07:45:28;27.90;97.60
18147;DHT22;9199;48.832;9.182;2022-07-29T07:47:54;27.80;98.30
18147;DHT22;9199;48.832;9.182;2022-07-29T07:50:21;27.90;97.80
18147;DHT22;9199;48.832;9.182;2022-07-29T07:52:49;28.20;96.90
18147;DHT22;9199;48.832;9.182;2022-07-29T07:55:19;28.90;95.80
18147;DHT22;9199;48.832;9.182;2022-07-29T07:57:45;29.30;95.10
18147;DHT22;9199;48.832;9.182;2022-07-29T08:00:14;29.30;94.40
18147;DHT22;9199;48.832;9.182;2022-07-29T08:02:41;29.10;94.00
18147;DHT22;9199;48.832;9.182;2022-07-29T08:05:11;29.10;94.70
18147;DHT22;9199;48.832;9.182;2022-07-29T08:07:42;29.10;94.50
18147;DHT22;9199;48.832;9.182;2022-07-29T08:10:09;29.00;93.30
18147;DHT22;9199;48.832;9.182;2022-07-29T08:12:37;29.10;94.10
18147;DHT22;9199;48.832;9.182;2022-07-29T08:15:04;29.20;93.40
18147;DHT22;9199;48.832;9.182;2022-07-29T08:17:33;29.30;92.70
18147;DHT22;9199;48.832;9.182;2022-07-29T08:19:59;29.40;92.70
18147;DHT22;9199;48.832;9.182;2022-07-29T08:22:26;29.50;91.90
18147;DHT22;9199;48.832;9.182;2022-07-29T08:24:53;29.50;92.40
18147;DHT22;9199;48.832;9.182;2022-07-29T08:27:21;29.60;91.40
18147;DHT22;9199;48.832;9.182;2022-07-29T08:29:49;29.60;91.10
18147;DHT22;9199;48.832;9.182;2022-07-29T08:32:16;29.70;91.30
18147;DHT22;9199;48.832;9.182;2022-07-29T08:34:42;29.90;90.00
18147;DHT22;9199;48.832;9.182;2022-07-29T08:37:11;29.70;88.80
18147;DHT22;9199;48.832;9.182;2022-07-29T08:39:38;29.70;90.90
18147;DHT22;9199;48.832;9.182;2022-07-29T08:42:05;29.70;90.30
18147;DHT22;9199;48.832;9.182;2022-07-29T08:44:33;29.70;90.10
18147;DHT22;9199;48.832;9.182;2022-07-29T08:47:02;29.90;87.10
18147;DHT22;9199;48.832;9.182;2022-07-29T08:49:29;30.00;86.90
18147;DHT22;9199;48.832;9.182;2022-07-29T08:51:57;30.00;83.90
18147;DHT22;9199;48.832;9.182;2022-07-29T08:54:24;30.10;83.30
18147;DHT22;9199;48.832;9.182;2022-07-29T08:56:51;30.10;83.00
18147;DHT22;9199;48.832;9.182;2022-07-29T08:59:20;30.20;82.10
18147;DHT22;9199;48.832;9.182;2022-07-29T09:01:48;30.50;82.10
18147;DHT22;9199;48.832;9.182;2022-07-29T09:04:19;30.60;77.70
18147;DHT22;9199;48.832;9.182;2022-07-29T09:06:48;30.60;78.00
18147;DHT22;9199;48.832;9.182;2022-07-29T09:09:16;30.50;78.80
18147;DHT22;9199;48.832;9.182;2022-07-29T09:11:43;30.70;77.70
18147;DHT22;9199;48.832;9.182;2022-07-29T09:14:12;31.20;73.50
18147;DHT22;9199;48.832;9.182;2022-07-29T09:16:51;31.50;74.20
18147;DHT22;9199;48.832;9.182;2022-07-29T09:19:27;31.60;72.50
18147;DHT22;9199;48.832;9.182;2022-07-29T09:21:55;31.70;69.60
18147;DHT22;9199;48.832;9.182;2022-07-29T09:24:26;31.20;69.20
18147;DHT22;9199;48.832;9.182;2022-07-29T09:26:53;31.00;70.40
18147;DHT22;9199;48.832;9.182;2022-07-29T09:29:22;30.80;70.60
18147;DHT22;9199;48.832;9.182;2022-07-29T09:31:50;30.90;69.70
18147;DHT22;9199;48.832;9.182;2022-07-29T09:34:21;30.90;70.70
18147;DHT22;9199;48.832;9.182;2022-07-29T09:36:51;31.30;72.20
18147;DHT22;9199;48.832;9.182;2022-07-29T09:39:27;31.60;71.00
18147;DHT22;9199;48.832;9.182;2022-07-29T09:41:56;31.90;68.90
18147;DHT22;9199;48.832;9.182;2022-07-29T09:44:23;32.00;68.80
18147;DHT22;9199;48.832;9.182;2022-07-29T09:46:57;32.30;69.00
18147;DHT22;9199;48.832;9.182;2022-07-29T09:49:28;32.40;67.80
18147;DHT22;9199;48.832;9.182;2022-07-29T09:52:05;32.70;67.10
18147;DHT22;9199;48.832;9.182;2022-07-29T09:54:32;33.30;65.20
18147;DHT22;9199;48.832;9.182;2022-07-29T09:57:03;33.80;64.00
18147;DHT22;9199;48.832;9.182;2022-07-29T09:59:31;34.40;63.60
18147;DHT22;9199;48.832;9.182;2022-07-29T10:01:58;34.90;63.20
18147;DHT22;9199;48.832;9.182;2022-07-29T10:04:36;36.00;59.60
18147;DHT22;9199;48.832;9.182;2022-07-29T10:07:05;37.20;55.50
18147;DHT22;9199;48.832;9.182;2022-07-29T10:09:32;37.20;54.10
18147;DHT22;9199;48.832;9.182;2022-07-29T10:12:07;36.40;55.40
18147;DHT22;9199;48.832;9.182;2022-07-29T10:14:36;35.30;56.00
18147;DHT22;9199;48.832;9.182;2022-07-29T10:17:05;34.00;57.80
18147;DHT22;9199;48.832;9.182;2022-07-29T10:19:33;32.90;59.90
18147;DHT22;9199;48.832;9.182;2022-07-29T10:22:01;32.20;61.50
18147;DHT22;9199;48.832;9.182;2022-07-29T10:24:32;31.70;62.40
18147;DHT22;9199;48.832;9.182;2022-07-29T10:27:00;31.20;63.80
18147;DHT22;9199;48.832;9.182;2022-07-29T10:29:28;30.70;65.10
18147;DHT22;9199;48.832;9.182;2022-07-29T10:32:16;30.20;67.30
18147;DHT22;9199;48.832;9.182;2022-07-29T10:35:01;29.90;67.80
18147;DHT22;9199;48.832;9.182;2022-07-29T10:37:37;29.50;69.30
18147;DHT22;9199;48.832;9.182;2022-07-29T10:40:17;29.20;71.20
18147;DHT22;9199;48.832;9.182;2022-07-29T10:43:14;28.80;71.80
18147;DHT22;9199;48.832;9.182;2022-07-29T10:45:43;28.40;71.80
18147;DHT22;9199;48.832;9.182;2022-07-29T10:48:10;28.00;73.10
18147;DHT22;9199;48.832;9.182;2022-07-29T10:50:54;27.70;73.80
18147;DHT22;9199;48.832;9.182;2022-07-29T10:53:22;27.30;74.70
18147;DHT22;9199;48.832;9.182;2022-07-29T10:55:51;27.00;76.00
18147;DHT22;9199;48.832;9.182;2022-07-29T10:58:20;26.70;77.10
18147;DHT22;9199;48.832;9.182;2022-07-29T11:00:49;26.50;77.70
18147;DHT22;9199;48.832;9.182;2022-07-29T11:03:47;26.50;77.90
18147;DHT22;9199;48.832;9.182;2022-07-29T11:06:17;26.40;81.10
18147;DHT22;9199;48.832;9.182;2022-07-29T11:08:44;26.20;83.90
18147;DHT22;9199;48.832;9.182;2022-07-29T11:11:33;25.80;90.40
18147;DHT22;9199;48.832;9.182;2022-07-29T11:14:02;25.20;92.00
18147;DHT22;9199;48.832;9.182;2022-07-29T11:16:58;24.70;95.80
18147;DHT22;9199;48.832;9.182;2022-07-29T11:19:25;24.20;99.40
18147;DHT22;9199;48.832;9.182;2022-07-29T11:21:52;23.90;96.80
18147;DHT22;9199;48.832;9.182;2022-07-29T11:24:21;23.80;97.40
18147;DHT22;9199;48.832;9.182;2022-07-29T11:27:13;23.50;99.90
18147;DHT22;9199;48.832;9.182;2022-07-29T11:29:51;23.20;99.90
18147;DHT22;9199;48.832;9.182;2022-07-29T11:32:18;23.10;99.90
18147;DHT22;9199;48.832;9.182;2022-07-29T11:34:47;23.20;99.90
18147;DHT22;9199;48.832;9.182;2022-07-29T11:37:19;23.10;99.90
18147;DHT22;9199;48.832;9.182;2022-07-29T11:42:44;23.10;99.90
18147;DHT22;9199;48.832;9.182;2022-07-29T11:45:13;23.30;99.90
18147;DHT22;9199;48.832;9.182;2022-07-29T11:47:46;23.50;99.90
18147;DHT22;9199;48.832;9.182;2022-07-29T11:50:15;23.70;99.90
18147;DHT22;9199;48.832;9.182;2022-07-29T11:52:44;23.80;99.90
18147;DHT22;9199;48.832;9.182;2022-07-29T11:55:13;23.70;99.90
18147;DHT22;9199;48.832;9.182;2022-07-29T11:57:49;23.80;99.90
18147;DHT22;9199;48.832;9.182;2022-07-29T12:00:24;24.00;99.90
18147;DHT22;9199;48.832;9.182;2022-07-29T12:02:51;24.20;99.90
18147;DHT22;9199;48.832;9.182;2022-07-29T12:05:19;24.50;99.90
18147;DHT22;9199;48.832;9.182;2022-07-29T12:07:46;24.80;99.90
18147;DHT22;9199;48.832;9.182;2022-07-29T12:10:13;25.70;99.90
18147;DHT22;9199;48.832;9.182;2022-07-29T12:12:40;26.90;99.90
18147;DHT22;9199;48.832;9.182;2022-07-29T12:15:14;27.50;99.60
18147;DHT22;9199;48.832;9.182;2022-07-29T12:17:41;27.80;98.70
18147;DHT22;9199;48.832;9.182;2022-07-29T12:20:08;27.60;98.10
18147;DHT22;9199;48.832;9.182;2022-07-29T12:22:36;27.50;98.70
18147;DHT22;9199;48.832;9.182;2022-07-29T12:25:07;27.60;99.00
18147;DHT22;9199;48.832;9.182;2022-07-29T12:27:35;27.90;99.10
18147;DHT22;9199;48.832;9.182;2022-07-29T12:30:05;27.80;98.80
18147;DHT22;9199;48.832;9.182;2022-07-29T12:32:34;27.40;99.10
18147;DHT22;9199;48.832;9.182;2022-07-29T12:35:06;26.80;99.70
18147;DHT22;9199;48.832;9.182;2022-07-29T12:37:36;26.20;99.90
18147;DHT22;9199;48.832;9.182;2022-07-29T12:40:04;25.70;99.90
18147;DHT22;9199;48.832;9.182;2022-07-29T12:42:32;25.40;99.90
18147;DHT22;9199;48.832;9.182;2022-07-29T12:44:58;25.20;99.90
18147;DHT22;9199;48.832;9.182;2022-07-29T12:47:25;25.00;99.90
18147;DHT22;9199;48.832;9.182;2022-07-29T12:52:45;24.90;99.90
18147;DHT22;9199;48.832;9.182;2022-07-29T12:55:12;24.80;99.90
18147;DHT22;9199;48.832;9.182;2022-07-29T12:57:45;24.60;99.90
18147;DHT22;9199;48.832;9.182;2022-07-29T13:00:14;24.50;99.90
18147;DHT22;9199;48.832;9.182;2022-07-29T13:02:42;24.40;99.90
18147;DHT22;9199;48.832;9.182;2022-07-29T13:05:10;24.30;99.90
18147;DHT22;9199;48.832;9.182;2022-07-29T13:07:38;24.10;99.90
18147;DHT22;9199;48.832;9.182;2022-07-29T13:10:14;23.90;99.90
18147;DHT22;9199;48.832;9.182;2022-07-29T13:13:04;23.80;99.90
18147;DHT22;9199;48.832;9.182;2022-07-29T13:15:31;23.80;99.90
18147;DHT22;9199;48.832;9.182;2022-07-29T13:17:58;23.80;99.90
18147;DHT22;9199;48.832;9.182;2022-07-29T13:20:27;23.70;99.90
18147;DHT22;9199;48.832;9.182;2022-07-29T13:22:55;23.60;99.90
18147;DHT22;9199;48.832;9.182;2022-07-29T13:25:28;23.50;99.90
18147;DHT22;9199;48.832;9.182;2022-07-29T13:27:55;23.50;99.90
18147;DHT22;9199;48.832;9.182;2022-07-29T13:30:23;23.50;99.90
18147;DHT22;9199;48.832;9.182;2022-07-29T13:32:50;23.50;99.90
18147;DHT22;9199;48.832;9.182;2022-07-29T13:35:18;23.30;99.90
18147;DHT22;9199;48.832;9.182;2022-07-29T13:37:45;22.80;99.90
18147;DHT22;9199;48.832;9.182;2022-07-29T13:40:13;22.50;99.90
18147;DHT22;9199;48.832;9.182;2022-07-29T13:42:42;22.40;99.90
18147;DHT22;9199;48.832;9.182;2022-07-29T13:45:09;22.50;99.90
18147;DHT22;9199;48.832;9.182;2022-07-29T13:47:37;22.60;99.90
18147;DHT22;9199;48.832;9.182;2022-07-29T13:50:05;23.00;99.90
18147;DHT22;9199;48.832;9.182;2022-07-29T13:52:33;23.40;99.90
18147;DHT22;9199;48.832;9.182;2022-07-29T13:55:00;23.90;99.90
18147;DHT22;9199;48.832;9.182;2022-07-29T13:57:27;24.60;99.90
18147;DHT22;9199;48.832;9.182;2022-07-29T13:59:55;25.30;99.90
18147;DHT22;9199;48.832;9.182;2022-07-29T14:02:22;25.90;99.90
18147;DHT22;9199;48.832;9.182;2022-07-29T14:04:49;26.20;99.90
18147;DHT22;9199;48.832;9.182;2022-07-29T14:07:16;26.60;99.90
18147;DHT22;9199;48.832;9.182;2022-07-29T14:09:43;27.10;99.90
18147;DHT22;9199;48.832;9.182;2022-07-29T14:12:10;27.30;99.90
18147;DHT22;9199;48.832;9.182;2022-07-29T14:14:37;27.20;99.40
18147;DHT22;9199;48.832;9.182;2022-07-29T14:17:05;27.10;99.80
18147;DHT22;9199;48.832;9.182;2022-07-29T14:19:32;27.20;99.50
18147;DHT22;9199;48.832;9.182;2022-07-29T14:22:01;27.20;98.30
18147;DHT22;9199;48.832;9.182;2022-07-29T14:24:28;27.30;98.20
18147;DHT22;9199;48.832;9.182;2022-07-29T14:26:56;27.30;98.10
18147;DHT22;9199;48.832;9.182;2022-07-29T14:29:22;27.30;97.60
18147;DHT22;9199;48.832;9.182;2022-07-29T14:31:49;27.20;97.30
18147;DHT22;9199;48.832;9.182;2022-07-29T14:34:17;27.10;97.70
18147;DHT22;9199;48.832;9.182;2022-07-29T14:36:44;27.10;98.20
18147;DHT22;9199;48.832;9.182;2022-07-29T14:39:11;27.30;97.80
18147;DHT22;9199;48.832;9.182;2022-07-29T14:41:38;27.10;97.30
18147;DHT22;9199;48.832;9.182;2022-07-29T14:44:05;27.20;96.60
18147;DHT22;9199;48.832;9.182;2022-07-29T14:46:31;27.10;95.90
18147;DHT22;9199;48.832;9.182;2022-07-29T14:48:58;27.10;95.90
18147;DHT22;9199;48.832;9.182;2022-07-29T14:51:26;27.00;94.90
18147;DHT22;9199;48.832;9.182;2022-07-29T14:53:53;27.10;95.10
18147;DHT22;9199;48.832;9.182;2022-07-29T14:56:21;27.20;94.80
18147;DHT22;9199;48.832;9.182;2022-07-29T14:58:48;27.40;94.60
18147;DHT22;9199;48.832;9.182;2022-07-29T15:01:15;27.60;93.80
18147;DHT22;9199;48.832;9.182;2022-07-29T15:03:41;27.70;93.60
18147;DHT22;9199;48.832;9.182;2022-07-29T15:06:08;27.80;93.20
18147;DHT22;9199;48.832;9.182;2022-07-29T15:08:36;27.70;92.80
18147;DHT22;9199;48.832;9.182;2022-07-29T15:11:03;27.60;92.80
18147;DHT22;9199;48.832;9.182;2022-07-29T15:13:30;27.50;93.10
18147;DHT22;9199;48.832;9.182;2022-07-29T15:15:56;27.30;93.70
18147;DHT22;9199;48.832;9.182;2022-07-29T15:18:23;27.30;94.90
18147;DHT22;9199;48.832;9.182;2022-07-29T15:20:50;27.30;96.10
18147;DHT22;9199;48.832;9.182;2022-07-29T15:23:17;27.20;97.00
18147;DHT22;9199;48.832;9.182;2022-07-29T15:25:45;27.10;98.00
18147;DHT22;9199;48.832;9.182;2022-07-29T15:28:12;26.90;98.30
18147;DHT22;9199;48.832;9.182;2022-07-29T15:30:39;26.70;98.90
18147;DHT22;9199;48.832;9.182;2022-07-29T15:33:07;26.60;98.10
18147;DHT22;9199;48.832;9.182;2022-07-29T15:35:34;26.50;97.80
18147;DHT22;9199;48.832;9.182;2022-07-29T15:38:01;26.50;98.20
18147;DHT22;9199;48.832;9.182;2022-07-29T15:40:28;26.50;98.90
18147;DHT22;9199;48.832;9.182;2022-07-29T15:42:56;26.60;99.50
18147;DHT22;9199;48.832;9.182;2022-07-29T15:45:26;26.50;99.90
18147;DHT22;9199;48.832;9.182;2022-07-29T15:47:53;26.40;99.90
18147;DHT22;9199;48.832;9.182;2022-07-29T15:50:20;26.30;99.90
18147;DHT22;9199;48.832;9.182;2022-07-29T15:52:46;26.30;99.90
18147;DHT22;9199;48.832;9.182;2022-07-29T15:55:13;26.20;99.90
18147;DHT22;9199;48.832;9.182;2022-07-29T15:57:40;26.20;99.90
18147;DHT22;9199;48.832;9.182;2022-07-29T16:00:11;26.20;99.90
18147;DHT22;9199;48.832;9.182;2022-07-29T16:02:38;26.20;99.90
18147;DHT22;9199;48.832;9.182;2022-07-29T16:05:05;26.20;99.90
18147;DHT22;9199;48.832;9.182;2022-07-29T16:07:32;26.10;99.90
18147;DHT22;9199;48.832;9.182;2022-07-29T16:09:59;25.90;99.90
18147;DHT22;9199;48.832;9.182;2022-07-29T16:12:26;25.90;99.90
18147;DHT22;9199;48.832;9.182;2022-07-29T16:14:53;26.10;99.90